createdAt,value
2022-08-26T00:00:12.038Z,5.10
2022-08-26T00:00:46.405Z,5.07
2022-08-26T00:01:19.149Z,5.50
2022-08-26T00:02:01.487Z,5.03
2022-08-26T00:02:33.671Z,5.28
2022-08-26T00:03:05.714Z,4.90
2022-08-26T00:03:39.406Z,5.07
2022-08-26T00:04:12.334Z,5.47
2022-08-26T00:04:44.338Z,4.72
2022-08-26T00:05:16.593Z,4.75
2022-08-26T00:05:50.891Z,4.68
2022-08-26T00:06:23.253Z,5.32
2022-08-26T00:06:56.708Z,5.22
2022-08-26T00:07:28.640Z,4.97
2022-08-26T00:08:01.395Z,5.12
2022-08-26T00:08:33.701Z,5.43
2022-08-26T00:09:08.042Z,5.15
2022-08-26T00:09:40.559Z,5.55
2022-08-26T00:10:12.578Z,5.12
2022-08-26T00:10:44.664Z,5.10
2022-08-26T00:11:26.341Z,5.20
2022-08-26T00:11:59.313Z,4.93
2022-08-26T00:12:37.540Z,5.12
2022-08-26T00:13:11.103Z,4.97
2022-08-26T00:13:47.777Z,5.00
2022-08-26T00:14:22.880Z,5.05
2022-08-26T00:14:56.147Z,4.68
2022-08-26T00:15:28.176Z,5.80
2022-08-26T00:16:00.568Z,5.57
2022-08-26T00:16:32.600Z,4.80
2022-08-26T00:17:05.243Z,4.95
2022-08-26T00:17:41.237Z,4.40
2022-08-26T00:18:22.420Z,4.47
2022-08-26T00:18:54.589Z,4.95
2022-08-26T00:19:26.607Z,5.60
2022-08-26T00:19:58.535Z,6.18
2022-08-26T00:20:32.801Z,5.00
2022-08-26T00:21:06.961Z,5.00
2022-08-26T00:21:38.901Z,5.00
2022-08-26T00:22:11.147Z,5.35
2022-08-26T00:22:43.741Z,5.72
2022-08-26T00:23:15.674Z,5.43
2022-08-26T00:23:48.456Z,5.10
2022-08-26T00:24:21.789Z,5.32
2022-08-26T00:24:54.584Z,5.78
2022-08-26T00:25:27.265Z,5.35
2022-08-26T00:25:59.331Z,5.40
2022-08-26T00:26:34.936Z,5.15
2022-08-26T00:27:06.963Z,4.97
2022-08-26T00:27:40.471Z,5.03
2022-08-26T00:28:13.134Z,5.40
2022-08-26T00:28:46.052Z,5.18
2022-08-26T00:29:18.445Z,5.65
2022-08-26T00:29:50.579Z,5.35
2022-08-26T00:30:26.707Z,5.40
2022-08-26T00:30:58.625Z,5.15
2022-08-26T00:31:31.421Z,4.80
2022-08-26T00:32:03.969Z,5.03
2022-08-26T00:32:36.198Z,5.60
2022-08-26T00:33:09.877Z,5.87
2022-08-26T00:33:43.165Z,5.37
2022-08-26T00:34:19.225Z,5.22
2022-08-26T00:34:51.550Z,5.10
2022-08-26T00:35:25.318Z,5.00
2022-08-26T00:36:01.717Z,5.20
2022-08-26T00:36:34.469Z,4.95
2022-08-26T00:37:09.838Z,5.50
2022-08-26T00:37:43.407Z,5.00
2022-08-26T00:38:15.974Z,5.30
2022-08-26T00:38:48.145Z,4.70
2022-08-26T00:39:20.950Z,5.55
2022-08-26T00:39:52.958Z,5.20
2022-08-26T00:40:33.327Z,4.97
2022-08-26T00:41:06.217Z,4.70
2022-08-26T00:41:40.806Z,5.03
2022-08-26T00:42:13.047Z,5.43
2022-08-26T00:42:45.970Z,5.25
2022-08-26T00:43:19.492Z,5.22
2022-08-26T00:43:51.967Z,5.05
2022-08-26T00:44:24.795Z,5.05
2022-08-26T00:44:57.730Z,4.93
2022-08-26T00:45:39.694Z,5.05
2022-08-26T00:46:19.795Z,5.28
2022-08-26T00:46:59.975Z,5.78
2022-08-26T00:47:34.382Z,5.30
2022-08-26T00:48:07.866Z,4.87
2022-08-26T00:48:44.008Z,4.82
2022-08-26T00:49:44.375Z,5.30
2022-08-26T00:50:23.154Z,4.80
2022-08-26T00:50:58.646Z,4.72
2022-08-26T00:51:31.681Z,5.72
2022-08-26T00:52:06.979Z,5.32
2022-08-26T00:52:42.933Z,5.35
2022-08-26T00:53:23.859Z,5.40
2022-08-26T00:54:03.903Z,4.90
2022-08-26T00:54:45.219Z,5.03
2022-08-26T00:55:27.520Z,4.43
2022-08-26T00:56:17.790Z,5.37
2022-08-26T00:57:00.112Z,4.57
2022-08-26T00:57:34.338Z,5.40
2022-08-26T00:58:07.474Z,5.07
2022-08-26T00:58:43.085Z,4.90
2022-08-26T00:59:17.919Z,5.40
2022-08-26T00:59:56.875Z,5.12
2022-08-26T01:00:31.223Z,5.25
2022-08-26T01:01:03.522Z,4.93
2022-08-26T01:01:38.104Z,5.32
2022-08-26T01:02:20.881Z,4.82
2022-08-26T01:02:56.039Z,5.10
2022-08-26T01:03:31.290Z,5.30
2022-08-26T01:04:03.437Z,5.82
2022-08-26T01:04:38.560Z,5.47
2022-08-26T01:05:11.707Z,4.87
2022-08-26T01:05:44.124Z,4.75
2022-08-26T01:06:16.304Z,4.93
2022-08-26T01:06:52.553Z,5.90
2022-08-26T01:07:30.305Z,4.87
2022-08-26T01:08:03.748Z,5.65
2022-08-26T01:08:35.955Z,4.78
2022-08-26T01:09:08.264Z,5.15
2022-08-26T01:09:40.755Z,5.53
2022-08-26T01:10:17.306Z,5.53
2022-08-26T01:10:49.329Z,5.93
2022-08-26T01:11:23.228Z,5.30
2022-08-26T01:11:59.226Z,5.68
2022-08-26T01:12:36.755Z,5.30
2022-08-26T01:13:12.453Z,5.05
2022-08-26T01:13:44.460Z,5.20
2022-08-26T01:14:20.115Z,5.00
2022-08-26T01:14:52.596Z,5.35
2022-08-26T01:15:35.652Z,5.20
2022-08-26T01:16:11.878Z,5.65
2022-08-26T01:16:44.342Z,5.45
2022-08-26T01:17:17.278Z,5.37
2022-08-26T01:17:49.835Z,5.43
2022-08-26T01:18:22.390Z,5.12
2022-08-26T01:19:09.759Z,5.07
2022-08-26T01:19:44.883Z,4.93
2022-08-26T01:20:46.111Z,5.68
2022-08-26T01:21:40.582Z,4.95
2022-08-26T01:22:26.621Z,4.43
2022-08-26T01:23:05.207Z,4.70
2022-08-26T01:23:48.037Z,5.03
2022-08-26T01:24:20.045Z,5.15
2022-08-26T01:24:52.166Z,5.32
2022-08-26T01:25:29.524Z,5.60
2022-08-26T01:26:08.811Z,5.43
2022-08-26T01:26:52.881Z,4.78
2022-08-26T01:27:25.352Z,5.32
2022-08-26T01:28:00.006Z,5.20
2022-08-26T01:28:34.083Z,4.70
2022-08-26T01:29:12.791Z,5.55
2022-08-26T01:29:47.212Z,5.43
2022-08-26T01:30:21.375Z,4.93
2022-08-26T01:30:56.838Z,4.87
2022-08-26T01:31:35.567Z,5.82
2022-08-26T01:32:11.736Z,5.05
2022-08-26T01:32:44.706Z,5.32
2022-08-26T01:33:21.027Z,5.07
2022-08-26T01:34:00.413Z,5.10
2022-08-26T01:34:37.614Z,5.22
2022-08-26T01:35:09.949Z,5.20
2022-08-26T01:35:42.960Z,5.05
2022-08-26T01:36:15.322Z,5.80
2022-08-26T01:36:54.448Z,5.30
2022-08-26T01:37:33.196Z,5.30
2022-08-26T01:38:05.265Z,5.07
2022-08-26T01:38:37.277Z,4.60
2022-08-26T01:39:10.085Z,5.10
2022-08-26T01:39:44.945Z,4.87
2022-08-26T01:40:24.180Z,5.40
2022-08-26T01:40:56.684Z,5.25
2022-08-26T01:41:30.163Z,4.93
2022-08-26T01:42:05.292Z,4.95
2022-08-26T01:42:43.681Z,5.12
2022-08-26T01:43:21.927Z,5.80
2022-08-26T01:43:55.799Z,4.85
2022-08-26T01:44:32.519Z,5.47
2022-08-26T01:45:14.515Z,5.05
2022-08-26T01:45:48.236Z,5.07
2022-08-26T01:46:23.261Z,5.25
2022-08-26T01:46:57.418Z,5.25
2022-08-26T01:47:32.039Z,5.53
2022-08-26T01:48:09.045Z,5.28
2022-08-26T01:48:43.856Z,5.18
2022-08-26T01:49:16.615Z,5.12
2022-08-26T01:49:53.712Z,5.35
2022-08-26T01:50:33.055Z,4.87
2022-08-26T01:51:07.825Z,5.30
2022-08-26T01:51:40.992Z,5.10
2022-08-26T01:52:20.684Z,5.15
2022-08-26T01:53:27.219Z,5.43
2022-08-26T01:54:00.982Z,5.03
2022-08-26T01:54:35.406Z,5.35
2022-08-26T01:55:09.061Z,5.70
2022-08-26T01:55:44.498Z,4.85
2022-08-26T01:56:16.891Z,5.22
2022-08-26T01:56:49.416Z,5.40
2022-08-26T01:57:23.407Z,5.70
2022-08-26T01:57:57.435Z,5.10
2022-08-26T01:58:42.777Z,5.62
2022-08-26T01:59:17.041Z,5.30
2022-08-26T01:59:50.799Z,5.15
2022-08-26T02:00:24.589Z,5.60
2022-08-26T02:00:57.325Z,5.57
2022-08-26T02:01:29.701Z,5.07
2022-08-26T02:02:02.954Z,5.00
2022-08-26T02:02:35.016Z,5.03
2022-08-26T02:03:17.254Z,4.97
2022-08-26T02:03:58.625Z,4.65
2022-08-26T02:04:34.499Z,4.97
2022-08-26T02:05:11.292Z,5.85
2022-08-26T02:05:45.787Z,4.97
2022-08-26T02:06:21.310Z,5.53
2022-08-26T02:06:53.782Z,4.90
2022-08-26T02:07:27.172Z,4.95
2022-08-26T02:07:59.090Z,5.30
2022-08-26T02:08:38.591Z,5.28
2022-08-26T02:09:11.920Z,6.07
2022-08-26T02:09:43.909Z,5.82
2022-08-26T02:10:15.958Z,4.60
2022-08-26T02:10:48.640Z,5.10
2022-08-26T02:11:21.203Z,5.90
2022-08-26T02:11:53.289Z,4.97
2022-08-26T02:12:27.295Z,5.50
2022-08-26T02:12:59.512Z,4.95
2022-08-26T02:13:34.810Z,5.95
2022-08-26T02:14:14.019Z,5.80
2022-08-26T02:14:53.696Z,5.35
2022-08-26T02:15:26.088Z,4.78
2022-08-26T02:16:00.859Z,5.40
2022-08-26T02:16:40.045Z,5.20
2022-08-26T02:17:15.643Z,4.87
2022-08-26T02:17:48.643Z,5.60
2022-08-26T02:18:26.437Z,5.20
2022-08-26T02:19:01.611Z,5.18
2022-08-26T02:19:40.865Z,5.55
2022-08-26T02:20:15.865Z,5.72
2022-08-26T02:20:51.577Z,4.95
2022-08-26T02:21:24.960Z,5.18
2022-08-26T02:22:03.551Z,5.37
2022-08-26T02:22:36.170Z,4.78
2022-08-26T02:23:08.846Z,4.80
2022-08-26T02:23:41.083Z,5.70
2022-08-26T02:24:16.622Z,5.05
2022-08-26T02:24:51.288Z,5.28
2022-08-26T02:25:27.987Z,5.00
2022-08-26T02:26:21.857Z,5.05
2022-08-26T02:26:54.942Z,5.28
2022-08-26T02:27:32.502Z,5.07
2022-08-26T02:28:04.806Z,5.25
2022-08-26T02:28:52.879Z,5.20
2022-08-26T02:29:34.576Z,5.40
2022-08-26T02:30:17.545Z,5.07
2022-08-26T02:30:49.657Z,5.15
2022-08-26T02:31:23.085Z,5.30
2022-08-26T02:31:57.956Z,5.40
2022-08-26T02:32:30.502Z,4.87
2022-08-26T02:33:07.038Z,6.03
2022-08-26T02:33:43.050Z,5.90
2022-08-26T02:34:21.158Z,5.43
2022-08-26T02:34:53.087Z,5.68
2022-08-26T02:35:25.503Z,5.75
2022-08-26T02:35:57.451Z,5.68
2022-08-26T02:36:29.388Z,5.65
2022-08-26T02:37:06.162Z,5.43
2022-08-26T02:37:38.779Z,5.47
2022-08-26T02:38:13.895Z,5.60
2022-08-26T02:38:46.266Z,5.62
2022-08-26T02:39:22.014Z,6.45
2022-08-26T02:39:54.409Z,5.40
2022-08-26T02:40:33.750Z,5.10
2022-08-26T02:41:08.076Z,5.70
2022-08-26T02:41:45.290Z,5.35
2022-08-26T02:42:17.342Z,5.65
2022-08-26T02:42:49.687Z,5.28
2022-08-26T02:43:32.665Z,5.55
2022-08-26T02:44:07.224Z,5.40
2022-08-26T02:44:39.613Z,5.18
2022-08-26T02:45:11.905Z,5.12
2022-08-26T02:45:44.349Z,5.20
2022-08-26T02:46:21.491Z,4.95
2022-08-26T02:47:02.371Z,5.45
2022-08-26T02:47:34.642Z,5.12
2022-08-26T02:48:15.638Z,5.15
2022-08-26T02:48:47.570Z,5.53
2022-08-26T02:49:19.874Z,5.57
2022-08-26T02:49:52.384Z,4.72
2022-08-26T02:50:25.771Z,5.57
2022-08-26T02:50:59.970Z,5.43
2022-08-26T02:51:32.054Z,6.03
2022-08-26T02:52:05.330Z,5.07
2022-08-26T02:52:37.687Z,5.37
2022-08-26T02:53:10.520Z,4.82
2022-08-26T02:53:42.803Z,5.50
2022-08-26T02:54:15.295Z,5.20
2022-08-26T02:54:47.670Z,5.40
2022-08-26T02:55:21.627Z,5.40
2022-08-26T02:55:56.653Z,5.35
2022-08-26T02:56:29.396Z,5.47
2022-08-26T02:57:02.996Z,5.28
2022-08-26T02:57:35.393Z,5.62
2022-08-26T02:58:07.350Z,5.75
2022-08-26T02:58:39.658Z,5.35
2022-08-26T02:59:15.492Z,5.53
2022-08-26T02:59:47.747Z,4.72
2022-08-26T03:00:19.862Z,5.32
2022-08-26T03:00:53.470Z,5.30
2022-08-26T03:01:32.450Z,4.70
2022-08-26T03:02:04.814Z,4.97
2022-08-26T03:02:36.952Z,5.47
2022-08-26T03:03:09.299Z,5.37
2022-08-26T03:03:41.361Z,5.30
2022-08-26T03:04:13.941Z,5.55
2022-08-26T03:04:58.022Z,6.00
2022-08-26T03:05:34.874Z,5.82
2022-08-26T03:06:07.000Z,5.00
2022-08-26T03:06:41.618Z,5.22
2022-08-26T03:07:13.581Z,5.10
2022-08-26T03:07:46.474Z,5.32
2022-08-26T03:08:18.674Z,5.45
2022-08-26T03:08:51.701Z,5.78
2022-08-26T03:09:24.495Z,4.90
2022-08-26T03:09:58.071Z,5.30
2022-08-26T03:10:32.221Z,5.05
2022-08-26T03:11:05.175Z,5.68
2022-08-26T03:11:39.092Z,5.03
2022-08-26T03:12:11.812Z,5.40
2022-08-26T03:12:47.438Z,5.15
2022-08-26T03:13:20.123Z,5.25
2022-08-26T03:13:52.660Z,6.10
2022-08-26T03:14:25.658Z,5.18
2022-08-26T03:14:58.917Z,5.53
2022-08-26T03:15:32.269Z,5.57
2022-08-26T03:16:05.049Z,5.60
2022-08-26T03:16:37.652Z,5.03
2022-08-26T03:17:09.672Z,5.15
2022-08-26T03:17:42.675Z,4.93
2022-08-26T03:18:16.083Z,5.05
2022-08-26T03:18:52.284Z,5.43
2022-08-26T03:19:25.431Z,5.22
2022-08-26T03:19:58.579Z,5.05
2022-08-26T03:20:30.609Z,5.15
2022-08-26T03:21:15.194Z,4.97
2022-08-26T03:21:47.727Z,5.28
2022-08-26T03:22:19.626Z,5.70
2022-08-26T03:22:53.409Z,4.95
2022-08-26T03:23:28.101Z,5.53
2022-08-26T03:24:00.650Z,4.82
2022-08-26T03:24:32.695Z,6.00
2022-08-26T03:25:08.107Z,5.15
2022-08-26T03:25:40.182Z,5.18
2022-08-26T03:26:14.034Z,5.15
2022-08-26T03:26:52.354Z,5.18
2022-08-26T03:27:25.022Z,5.53
2022-08-26T03:27:56.963Z,5.72
2022-08-26T03:28:31.914Z,5.37
2022-08-26T03:29:23.292Z,5.15
2022-08-26T03:30:14.338Z,5.20
2022-08-26T03:30:48.148Z,5.10
2022-08-26T03:31:20.894Z,5.28
2022-08-26T03:31:57.178Z,4.93
2022-08-26T03:32:30.153Z,5.37
2022-08-26T03:33:02.447Z,5.55
2022-08-26T03:33:34.411Z,5.40
2022-08-26T03:34:06.329Z,5.47
2022-08-26T03:34:38.697Z,6.10
2022-08-26T03:35:11.542Z,5.45
2022-08-26T03:35:47.088Z,5.30
2022-08-26T03:36:19.326Z,5.47
2022-08-26T03:36:51.322Z,5.40
2022-08-26T03:37:23.405Z,5.60
2022-08-26T03:37:55.521Z,5.53
2022-08-26T03:38:27.407Z,5.90
2022-08-26T03:38:59.439Z,5.35
2022-08-26T03:39:31.874Z,5.43
2022-08-26T03:40:05.864Z,5.00
2022-08-26T03:40:38.799Z,5.25
2022-08-26T03:41:12.304Z,5.37
2022-08-26T03:41:47.939Z,5.68
2022-08-26T03:42:21.530Z,5.75
2022-08-26T03:42:53.604Z,4.95
2022-08-26T03:43:27.753Z,5.75
2022-08-26T03:44:01.747Z,5.78
2022-08-26T03:44:33.872Z,5.05
2022-08-26T03:45:08.446Z,5.87
2022-08-26T03:45:41.140Z,5.55
2022-08-26T03:46:14.641Z,6.30
2022-08-26T03:46:47.160Z,5.53
2022-08-26T03:47:20.501Z,5.28
2022-08-26T03:47:52.431Z,5.75
2022-08-26T03:48:25.042Z,5.90
2022-08-26T03:48:57.842Z,5.12
2022-08-26T03:49:31.815Z,5.60
2022-08-26T03:50:05.511Z,5.85
2022-08-26T03:50:38.164Z,5.68
2022-08-26T03:51:19.106Z,5.32
2022-08-26T03:51:51.572Z,5.82
2022-08-26T03:52:23.806Z,6.10
2022-08-26T03:52:56.318Z,5.90
2022-08-26T03:53:28.495Z,5.30
2022-08-26T03:54:02.894Z,5.62
2022-08-26T03:54:34.783Z,5.68
2022-08-26T03:55:07.669Z,5.90
2022-08-26T03:55:39.733Z,6.65
2022-08-26T03:56:11.784Z,5.57
2022-08-26T03:56:43.701Z,5.68
2022-08-26T03:57:18.886Z,5.93
2022-08-26T03:57:52.343Z,6.45
2022-08-26T03:58:25.342Z,5.60
2022-08-26T03:58:57.295Z,5.37
2022-08-26T03:59:29.377Z,6.03
2022-08-26T04:00:01.355Z,5.85
2022-08-26T04:00:41.028Z,6.00
2022-08-26T04:01:16.238Z,5.47
2022-08-26T04:01:48.411Z,5.60
2022-08-26T04:02:20.441Z,5.85
2022-08-26T04:02:53.401Z,5.15
2022-08-26T04:03:45.961Z,6.47
2022-08-26T04:04:18.312Z,6.12
2022-08-26T04:04:54.896Z,6.93
2022-08-26T04:05:26.956Z,6.70
2022-08-26T04:06:00.261Z,5.32
2022-08-26T04:06:35.498Z,5.65
2022-08-26T04:07:07.726Z,5.32
2022-08-26T04:07:41.327Z,5.75
2022-08-26T04:08:13.286Z,6.07
2022-08-26T04:08:45.300Z,5.47
2022-08-26T04:09:21.084Z,5.75
2022-08-26T04:09:57.681Z,5.60
2022-08-26T04:10:29.690Z,5.70
2022-08-26T04:11:01.873Z,5.80
2022-08-26T04:11:39.323Z,5.95
2022-08-26T04:12:11.996Z,5.62
2022-08-26T04:12:44.881Z,5.68
2022-08-26T04:13:17.041Z,5.78
2022-08-26T04:13:49.464Z,6.03
2022-08-26T04:14:23.909Z,5.65
2022-08-26T04:14:57.110Z,5.80
2022-08-26T04:15:29.789Z,6.05
2022-08-26T04:16:01.761Z,5.60
2022-08-26T04:16:34.249Z,6.28
2022-08-26T04:17:07.387Z,5.25
2022-08-26T04:17:39.631Z,6.60
2022-08-26T04:18:11.630Z,5.80
2022-08-26T04:18:46.799Z,6.07
2022-08-26T04:19:20.101Z,5.87
2022-08-26T04:19:55.337Z,6.68
2022-08-26T04:20:27.390Z,6.10
2022-08-26T04:21:00.071Z,6.00
2022-08-26T04:21:32.041Z,6.80
2022-08-26T04:22:03.993Z,5.47
2022-08-26T04:22:36.507Z,6.65
2022-08-26T04:23:08.665Z,5.87
2022-08-26T04:23:47.844Z,6.60
2022-08-26T04:24:22.342Z,6.18
2022-08-26T04:24:54.268Z,6.45
2022-08-26T04:25:27.896Z,5.85
2022-08-26T04:26:01.455Z,6.00
2022-08-26T04:26:39.407Z,5.93
2022-08-26T04:27:14.690Z,5.60
2022-08-26T04:27:48.921Z,5.95
2022-08-26T04:28:22.890Z,6.32
2022-08-26T04:28:55.215Z,5.75
2022-08-26T04:29:27.156Z,5.28
2022-08-26T04:29:59.129Z,6.43
2022-08-26T04:30:31.241Z,6.30
2022-08-26T04:31:03.566Z,6.55
2022-08-26T04:31:37.071Z,6.85
2022-08-26T04:32:09.388Z,5.53
2022-08-26T04:32:41.903Z,6.35
2022-08-26T04:33:14.283Z,6.28
2022-08-26T04:33:49.576Z,5.90
2022-08-26T04:34:27.258Z,5.20
2022-08-26T04:35:00.982Z,5.78
2022-08-26T04:35:35.240Z,5.32
2022-08-26T04:36:07.787Z,6.00
2022-08-26T04:36:41.000Z,6.90
2022-08-26T04:37:13.908Z,5.55
2022-08-26T04:37:45.836Z,5.82
2022-08-26T04:38:19.966Z,5.80
2022-08-26T04:38:52.277Z,6.22
2022-08-26T04:39:27.680Z,6.37
2022-08-26T04:39:59.938Z,6.70
2022-08-26T04:40:32.233Z,5.55
2022-08-26T04:41:07.391Z,6.10
2022-08-26T04:41:49.164Z,5.22
2022-08-26T04:42:23.271Z,5.40
2022-08-26T04:42:58.227Z,6.03
2022-08-26T04:43:31.281Z,5.95
2022-08-26T04:44:03.713Z,6.45
2022-08-26T04:44:37.015Z,5.47
2022-08-26T04:45:10.162Z,5.90
2022-08-26T04:45:43.624Z,5.87
2022-08-26T04:46:19.539Z,6.18
2022-08-26T04:46:52.672Z,6.07
2022-08-26T04:47:28.109Z,6.05
2022-08-26T04:48:03.915Z,5.43
2022-08-26T04:48:36.754Z,5.40
2022-08-26T04:49:09.213Z,5.45
2022-08-26T04:49:41.183Z,5.78
2022-08-26T04:50:13.852Z,5.70
2022-08-26T04:50:49.528Z,5.60
2022-08-26T04:51:28.106Z,5.70
2022-08-26T04:52:00.237Z,5.18
2022-08-26T04:52:32.287Z,5.57
2022-08-26T04:53:04.524Z,5.82
2022-08-26T04:53:39.465Z,5.93
2022-08-26T04:54:12.403Z,5.60
2022-08-26T04:54:44.313Z,6.25
2022-08-26T04:55:16.339Z,5.75
2022-08-26T04:55:48.508Z,5.57
2022-08-26T04:56:20.582Z,5.35
2022-08-26T04:56:53.150Z,6.90
2022-08-26T04:57:25.215Z,5.70
2022-08-26T04:57:57.818Z,5.78
2022-08-26T04:58:29.772Z,6.37
2022-08-26T04:59:04.426Z,5.78
2022-08-26T04:59:39.983Z,6.30
2022-08-26T05:00:13.857Z,5.70
2022-08-26T05:00:49.616Z,6.00
2022-08-26T05:01:22.866Z,6.20
2022-08-26T05:01:57.365Z,6.05
2022-08-26T05:02:31.510Z,5.18
2022-08-26T05:03:03.656Z,5.53
2022-08-26T05:03:36.378Z,5.00
2022-08-26T05:04:08.743Z,5.25
2022-08-26T05:04:43.515Z,5.47
2022-08-26T05:05:15.455Z,5.47
2022-08-26T05:05:50.914Z,5.75
2022-08-26T05:06:22.879Z,5.53
2022-08-26T05:07:02.203Z,5.82
2022-08-26T05:07:35.372Z,6.55
2022-08-26T05:08:07.673Z,5.15
2022-08-26T05:08:41.134Z,4.82
2022-08-26T05:09:14.488Z,5.22
2022-08-26T05:09:47.310Z,5.22
2022-08-26T05:10:19.548Z,5.47
2022-08-26T05:10:57.677Z,5.55
2022-08-26T05:11:29.720Z,5.57
2022-08-26T05:12:01.672Z,6.03
2022-08-26T05:12:35.141Z,5.68
2022-08-26T05:13:11.098Z,6.07
2022-08-26T05:13:43.980Z,5.97
2022-08-26T05:14:16.639Z,5.18
2022-08-26T05:14:48.621Z,6.10
2022-08-26T05:15:20.504Z,5.80
2022-08-26T05:15:52.665Z,5.62
2022-08-26T05:16:24.920Z,5.50
2022-08-26T05:16:56.868Z,5.68
2022-08-26T05:17:29.120Z,6.10
2022-08-26T05:18:01.155Z,6.12
2022-08-26T05:18:34.164Z,5.75
2022-08-26T05:19:08.553Z,6.22
2022-08-26T05:19:42.992Z,6.00
2022-08-26T05:20:15.018Z,5.93
2022-08-26T05:20:53.896Z,5.68
2022-08-26T05:21:29.161Z,5.68
2022-08-26T05:22:01.172Z,5.85
2022-08-26T05:22:33.086Z,6.37
2022-08-26T05:23:04.985Z,7.40
2022-08-26T05:23:38.596Z,5.50
2022-08-26T05:24:13.328Z,5.57
2022-08-26T05:24:46.519Z,5.40
2022-08-26T05:25:18.578Z,5.28
2022-08-26T05:25:57.071Z,5.35
2022-08-26T05:26:31.533Z,4.93
2022-08-26T05:27:03.898Z,5.72
2022-08-26T05:27:43.533Z,5.18
2022-08-26T05:28:18.105Z,6.07
2022-08-26T05:28:50.682Z,5.30
2022-08-26T05:29:26.578Z,5.68
2022-08-26T05:29:59.023Z,5.55
2022-08-26T05:30:31.518Z,5.10
2022-08-26T05:31:16.038Z,5.85
2022-08-26T05:31:52.719Z,5.50
2022-08-26T05:32:24.754Z,5.95
2022-08-26T05:32:56.733Z,5.35
2022-08-26T05:33:29.420Z,5.20
2022-08-26T05:34:03.965Z,4.95
2022-08-26T05:34:37.523Z,5.32
2022-08-26T05:35:10.903Z,5.65
2022-08-26T05:35:44.723Z,5.87
2022-08-26T05:36:20.341Z,5.45
2022-08-26T05:36:54.174Z,5.93
2022-08-26T05:37:26.586Z,5.65
2022-08-26T05:38:00.570Z,5.47
2022-08-26T05:38:32.472Z,5.80
2022-08-26T05:39:06.780Z,5.05
2022-08-26T05:39:38.768Z,5.25
2022-08-26T05:40:15.799Z,5.85
2022-08-26T05:40:52.596Z,5.82
2022-08-26T05:41:34.295Z,5.72
2022-08-26T05:42:08.449Z,5.30
2022-08-26T05:42:41.466Z,5.62
2022-08-26T05:43:14.279Z,5.03
2022-08-26T05:43:46.360Z,4.93
2022-08-26T05:44:21.022Z,5.62
2022-08-26T05:44:56.216Z,5.03
2022-08-26T05:45:28.597Z,5.78
2022-08-26T05:46:06.657Z,6.12
2022-08-26T05:46:40.261Z,5.03
2022-08-26T05:47:12.420Z,5.45
2022-08-26T05:47:44.349Z,5.43
2022-08-26T05:48:22.625Z,5.90
2022-08-26T05:48:57.164Z,5.30
2022-08-26T05:49:29.074Z,5.40
2022-08-26T05:50:05.233Z,5.03
2022-08-26T05:50:43.124Z,5.82
2022-08-26T05:51:15.578Z,5.53
2022-08-26T05:51:48.109Z,5.32
2022-08-26T05:52:20.428Z,5.85
2022-08-26T05:52:52.370Z,5.60
2022-08-26T05:53:26.024Z,5.10
2022-08-26T05:53:58.914Z,5.87
2022-08-26T05:54:30.832Z,6.93
2022-08-26T05:55:02.710Z,6.07
2022-08-26T05:55:34.831Z,6.55
2022-08-26T05:56:09.406Z,6.28
2022-08-26T05:56:41.848Z,5.60
2022-08-26T05:57:15.984Z,5.62
2022-08-26T05:57:50.457Z,5.87
2022-08-26T05:58:23.185Z,5.78
2022-08-26T05:58:56.375Z,5.90
2022-08-26T05:59:30.717Z,5.32
2022-08-26T06:00:05.565Z,7.70
2022-08-26T06:00:45.229Z,7.35
2022-08-26T06:01:20.436Z,6.35
2022-08-26T06:01:55.081Z,5.50
2022-08-26T06:02:27.272Z,5.43
2022-08-26T06:02:59.288Z,5.12
2022-08-26T06:03:33.980Z,5.60
2022-08-26T06:04:07.960Z,5.47
2022-08-26T06:04:39.890Z,5.72
2022-08-26T06:05:11.829Z,5.37
2022-08-26T06:05:44.085Z,5.00
2022-08-26T06:06:20.256Z,5.05
2022-08-26T06:06:59.634Z,5.55
2022-08-26T06:07:50.217Z,5.45
2022-08-26T06:08:22.493Z,5.93
2022-08-26T06:08:55.339Z,4.53
2022-08-26T06:09:27.409Z,5.60
2022-08-26T06:10:21.666Z,5.18
2022-08-26T06:10:54.792Z,4.50
2022-08-26T06:11:28.270Z,4.97
2022-08-26T06:12:01.865Z,5.12
2022-08-26T06:12:34.221Z,5.25
2022-08-26T06:13:09.283Z,5.07
2022-08-26T06:13:44.727Z,4.53
2022-08-26T06:14:17.837Z,4.62
2022-08-26T06:14:51.225Z,4.35
2022-08-26T06:15:23.614Z,4.85
2022-08-26T06:15:56.925Z,4.70
2022-08-26T06:16:31.588Z,5.28
2022-08-26T06:17:04.303Z,4.93
2022-08-26T06:17:36.201Z,5.30
2022-08-26T06:18:08.461Z,5.05
2022-08-26T06:18:44.240Z,4.10
2022-08-26T06:19:16.275Z,5.10
2022-08-26T06:19:48.712Z,4.90
2022-08-26T06:20:20.736Z,4.25
2022-08-26T06:20:58.012Z,4.40
2022-08-26T06:21:33.434Z,4.03
2022-08-26T06:22:25.579Z,4.05
2022-08-26T06:23:16.551Z,4.15
2022-08-26T06:24:09.506Z,3.92
2022-08-26T06:24:59.897Z,4.10
2022-08-26T06:25:38.106Z,4.30
2022-08-26T06:26:10.938Z,3.40
2022-08-26T06:26:50.507Z,4.00
2022-08-26T06:27:23.208Z,3.70
2022-08-26T06:27:55.572Z,3.75
2022-08-26T06:28:27.949Z,3.87
2022-08-26T06:29:00.689Z,3.80
2022-08-26T06:29:37.571Z,4.07
2022-08-26T06:30:10.485Z,4.00
2022-08-26T06:30:42.719Z,3.55
2022-08-26T06:31:15.799Z,4.05
2022-08-26T06:31:48.359Z,4.20
2022-08-26T06:32:20.277Z,3.83
2022-08-26T06:32:52.502Z,4.00
2022-08-26T06:33:27.965Z,4.43
2022-08-26T06:34:00.390Z,3.62
2022-08-26T06:34:33.873Z,4.15
2022-08-26T06:35:06.477Z,4.25
2022-08-26T06:35:45.669Z,4.22
2022-08-26T06:36:23.500Z,3.80
2022-08-26T06:36:57.850Z,4.03
2022-08-26T06:37:29.763Z,4.65
2022-08-26T06:38:02.629Z,4.00
2022-08-26T06:38:35.406Z,3.80
2022-08-26T06:39:11.167Z,3.85
2022-08-26T06:39:43.630Z,4.35
2022-08-26T06:40:15.638Z,4.30
2022-08-26T06:40:50.582Z,4.10
2022-08-26T06:41:23.320Z,3.70
2022-08-26T06:41:56.117Z,4.03
2022-08-26T06:42:29.733Z,4.03
2022-08-26T06:43:03.514Z,4.03
2022-08-26T06:43:35.509Z,3.62
2022-08-26T06:44:08.021Z,4.45
2022-08-26T06:44:41.014Z,4.05
2022-08-26T06:45:13.068Z,3.90
2022-08-26T06:45:48.883Z,3.30
2022-08-26T06:46:22.122Z,3.83
2022-08-26T06:46:54.688Z,3.85
2022-08-26T06:47:26.638Z,3.92
2022-08-26T06:48:01.441Z,4.18
2022-08-26T06:48:33.512Z,3.80
2022-08-26T06:49:05.608Z,3.60
2022-08-26T06:49:37.605Z,3.47
2022-08-26T06:50:09.652Z,4.37
2022-08-26T06:50:42.163Z,3.42
2022-08-26T06:51:19.326Z,3.92
2022-08-26T06:51:56.477Z,3.87
2022-08-26T06:52:28.465Z,3.85
2022-08-26T06:53:01.616Z,4.12
2022-08-26T06:53:33.920Z,4.30
2022-08-26T06:54:08.908Z,3.92
2022-08-26T06:54:43.213Z,3.95
2022-08-26T06:55:16.262Z,4.43
2022-08-26T06:55:51.749Z,3.78
2022-08-26T06:56:26.536Z,3.92
2022-08-26T06:56:59.457Z,4.07
2022-08-26T06:57:32.992Z,4.00
2022-08-26T06:58:10.211Z,4.18
2022-08-26T06:58:42.751Z,4.05
2022-08-26T06:59:16.107Z,3.92
2022-08-26T06:59:48.609Z,3.70
2022-08-26T07:00:23.733Z,4.05
2022-08-26T07:00:59.488Z,3.60
2022-08-26T07:01:39.013Z,3.90
2022-08-26T07:02:15.317Z,3.67
2022-08-26T07:02:49.975Z,3.72
2022-08-26T07:03:22.346Z,3.78
2022-08-26T07:03:57.214Z,3.92
2022-08-26T07:04:29.531Z,3.85
2022-08-26T07:05:01.543Z,3.40
2022-08-26T07:05:34.366Z,3.47
2022-08-26T07:06:07.718Z,3.72
2022-08-26T07:06:41.693Z,3.83
2022-08-26T07:07:15.770Z,3.92
2022-08-26T07:07:48.418Z,4.22
2022-08-26T07:08:22.427Z,4.18
2022-08-26T07:09:01.734Z,3.60
2022-08-26T07:10:10.636Z,3.72
2022-08-26T07:10:43.252Z,3.97
2022-08-26T07:11:15.993Z,4.30
2022-08-26T07:11:49.201Z,4.07
2022-08-26T07:12:21.422Z,3.37
2022-08-26T07:12:54.128Z,4.03
2022-08-26T07:13:30.518Z,3.45
2022-08-26T07:14:03.367Z,4.05
2022-08-26T07:14:35.306Z,3.80
2022-08-26T07:15:07.551Z,3.62
2022-08-26T07:15:42.003Z,3.28
2022-08-26T07:16:16.475Z,3.87
2022-08-26T07:16:49.618Z,3.90
2022-08-26T07:17:21.731Z,3.70
2022-08-26T07:17:57.014Z,4.15
2022-08-26T07:18:28.922Z,3.53
2022-08-26T07:19:03.342Z,3.80
2022-08-26T07:19:35.787Z,3.90
2022-08-26T07:20:08.959Z,3.65
2022-08-26T07:20:40.948Z,3.45
2022-08-26T07:21:18.161Z,3.85
2022-08-26T07:21:50.247Z,4.10
2022-08-26T07:22:22.181Z,3.75
2022-08-26T07:22:56.077Z,3.90
2022-08-26T07:23:28.014Z,3.78
2022-08-26T07:24:01.505Z,3.80
2022-08-26T07:24:36.098Z,3.53
2022-08-26T07:25:08.960Z,4.55
2022-08-26T07:25:42.103Z,4.15
2022-08-26T07:26:18.168Z,3.22
2022-08-26T07:26:50.087Z,4.18
2022-08-26T07:27:23.331Z,3.30
2022-08-26T07:27:55.223Z,3.78
2022-08-26T07:28:27.154Z,3.90
2022-08-26T07:28:59.789Z,3.50
2022-08-26T07:29:31.888Z,4.35
2022-08-26T07:30:07.337Z,3.40
2022-08-26T07:30:41.212Z,4.20
2022-08-26T07:31:16.338Z,3.70
2022-08-26T07:31:48.319Z,3.90
2022-08-26T07:32:20.887Z,3.85
2022-08-26T07:32:57.338Z,4.00
2022-08-26T07:33:30.453Z,3.83
2022-08-26T07:34:02.442Z,3.42
2022-08-26T07:34:38.402Z,3.37
2022-08-26T07:35:10.405Z,3.72
2022-08-26T07:35:44.709Z,4.00
2022-08-26T07:36:19.102Z,3.87
2022-08-26T07:36:51.654Z,4.10
2022-08-26T07:37:24.439Z,3.75
2022-08-26T07:37:57.132Z,3.75
2022-08-26T07:38:29.337Z,4.25
2022-08-26T07:39:06.731Z,4.00
2022-08-26T07:39:40.382Z,3.85